sensor_id;sensor_type;location;lat;lon;timestamp;pressure;altitude;pressure_sealevel;temperature;humidity
27304;BME280;14791;52.392;13.092;2023-02-11T00:01:40;102535.58;;;8.81;46.71
27304;BME280;14791;52.392;13.092;2023-02-11T00:04:09;102536.39;;;8.84;46.76
27304;BME280;14791;52.392;13.092;2023-02-11T00:06:38;102535.52;;;8.84;46.73
27304;BME280;14791;52.392;13.092;2023-02-11T00:09:08;102531.08;;;8.83;46.71
27304;BME280;14791;52.392;13.092;2023-02-11T00:11:38;102527.09;;;8.83;46.70
27304;BME280;14791;52.392;13.092;2023-02-11T00:14:08;102527.09;;;8.83;46.72
27304;BME280;14791;52.392;13.092;2023-02-11T00:16:37;102523.09;;;8.83;46.74
27304;BME280;14791;52.392;13.092;2023-02-11T00:19:06;102518.69;;;8.82;46.75
27304;BME280;14791;52.392;13.092;2023-02-11T00:21:35;102526.30;;;8.79;46.79
27304;BME280;14791;52.392;13.092;2023-02-11T00:24:04;102529.87;;;8.78;46.79
27304;BME280;14791;52.392;13.092;2023-02-11T00:26:35;102527.67;;;8.78;46.82
27304;BME280;14791;52.392;13.092;2023-02-11T00:29:04;102551.65;;;8.78;46.90
27304;BME280;14791;52.392;13.092;2023-02-11T00:31:34;102544.06;;;8.79;46.92
27304;BME280;14791;52.392;13.092;2023-02-11T00:34:04;102537.39;;;8.79;47.01
27304;BME280;14791;52.392;13.092;2023-02-11T00:36:33;102529.03;;;8.76;47.00
27304;BME280;14791;52.392;13.092;2023-02-11T00:39:03;102520.02;;;8.82;46.99
27304;BME280;14791;52.392;13.092;2023-02-11T00:41:32;102512.03;;;8.82;47.02
27304;BME280;14791;52.392;13.092;2023-02-11T00:44:01;102514.60;;;8.85;47.08
27304;BME280;14791;52.392;13.092;2023-02-11T00:46:30;102503.02;;;8.86;47.06
27304;BME280;14791;52.392;13.092;2023-02-11T00:48:59;102505.19;;;8.88;47.01
27304;BME280;14791;52.392;13.092;2023-02-11T00:51:28;102515.35;;;8.90;47.01
27304;BME280;14791;52.392;13.092;2023-02-11T00:53:57;102518.48;;;8.89;47.03
27304;BME280;14791;52.392;13.092;2023-02-11T00:56:26;102516.69;;;8.90;47.02
27304;BME280;14791;52.392;13.092;2023-02-11T00:58:56;102513.12;;;8.91;47.05
27304;BME280;14791;52.392;13.092;2023-02-11T01:01:25;102523.78;;;8.91;47.04
27304;BME280;14791;52.392;13.092;2023-02-11T01:03:55;102515.79;;;8.91;47.03
27304;BME280;14791;52.392;13.092;2023-02-11T01:06:23;102515.79;;;8.91;47.07
27304;BME280;14791;52.392;13.092;2023-02-11T01:08:52;102514.89;;;8.90;47.05
27304;BME280;14791;52.392;13.092;2023-02-11T01:11:22;102508.28;;;8.89;47.09
27304;BME280;14791;52.392;13.092;2023-02-11T01:13:51;102505.13;;;8.91;47.17
27304;BME280;14791;52.392;13.092;2023-02-11T01:16:20;102497.53;;;8.92;47.19
27304;BME280;14791;52.392;13.092;2023-02-11T01:18:49;102500.58;;;8.94;47.21
27304;BME280;14791;52.392;13.092;2023-02-11T01:21:18;102497.39;;;8.98;47.21
27304;BME280;14791;52.392;13.092;2023-02-11T01:23:47;102496.86;;;9.00;47.16
27304;BME280;14791;52.392;13.092;2023-02-11T01:26:16;102489.27;;;9.03;47.14
27304;BME280;14791;52.392;13.092;2023-02-11T01:28:45;102486.13;;;9.03;47.10
27304;BME280;14791;52.392;13.092;2023-02-11T01:31:14;102481.64;;;9.05;47.12
27304;BME280;14791;52.392;13.092;2023-02-11T01:33:43;102481.64;;;9.05;47.13
27304;BME280;14791;52.392;13.092;2023-02-11T01:36:12;102475.88;;;9.04;47.17
27304;BME280;14791;52.392;13.092;2023-02-11T01:38:41;102483.87;;;9.04;47.18
27304;BME280;14791;52.392;13.092;2023-02-11T01:41:13;102482.05;;;9.06;47.21
27304;BME280;14791;52.392;13.092;2023-02-11T01:43:45;102477.64;;;9.05;47.22
27304;BME280;14791;52.392;13.092;2023-02-11T01:49:02;102463.94;;;9.03;47.28
27304;BME280;14791;52.392;13.092;2023-02-11T01:54:14;102443.52;;;9.02;47.39
27304;BME280;14791;52.392;13.092;2023-02-11T01:57:01;102432.48;;;8.99;47.48
27304;BME280;14791;52.392;13.092;2023-02-11T02:07:59;102424.98;;;8.97;47.87
27304;BME280;14791;52.392;13.092;2023-02-11T02:10:29;102421.33;;;9.01;47.87
27304;BME280;14791;52.392;13.092;2023-02-11T02:12:59;102418.56;;;9.04;47.88
27304;BME280;14791;52.392;13.092;2023-02-11T02:15:33;102412.23;;;9.08;47.89
27304;BME280;14791;52.392;13.092;2023-02-11T02:23:48;102399.54;;;9.16;47.95
27304;BME280;14791;52.392;13.092;2023-02-11T02:26:52;102382.21;;;9.16;48.00
27304;BME280;14791;52.392;13.092;2023-02-11T02:29:29;102390.14;;;9.20;48.00
27304;BME280;14791;52.392;13.092;2023-02-11T02:34:57;102383.91;;;9.19;48.15
27304;BME280;14791;52.392;13.092;2023-02-11T02:37:33;102372.81;;;9.20;48.20
27304;BME280;14791;52.392;13.092;2023-02-11T02:40:03;102379.78;;;9.24;48.18
27304;BME280;14791;52.392;13.092;2023-02-11T02:42:32;102383.24;;;9.27;48.21
27304;BME280;14791;52.392;13.092;2023-02-11T02:45:01;102380.44;;;9.32;48.22
27304;BME280;14791;52.392;13.092;2023-02-11T02:47:31;102377.17;;;9.37;48.18
27304;BME280;14791;52.392;13.092;2023-02-11T02:50:00;102375.23;;;9.42;48.17
27304;BME280;14791;52.392;13.092;2023-02-11T02:52:59;102382.63;;;9.47;48.15
27304;BME280;14791;52.392;13.092;2023-02-11T02:59:21;102387.85;;;9.50;48.24
27304;BME280;14791;52.392;13.092;2023-02-11T03:01:12;102371.41;;;9.51;48.27
27304;BME280;14791;52.392;13.092;2023-02-11T03:03:47;102368.68;;;9.52;48.31
27304;BME280;14791;52.392;13.092;2023-02-11T03:09:37;102357.47;;;9.56;48.30
27304;BME280;14791;52.392;13.092;2023-02-11T03:12:07;102353.10;;;9.53;48.39
27304;BME280;14791;52.392;13.092;2023-02-11T03:14:38;102358.84;;;9.54;48.42
27304;BME280;14791;52.392;13.092;2023-02-11T03:17:09;102352.89;;;9.59;48.39
27304;BME280;14791;52.392;13.092;2023-02-11T03:19:43;102362.55;;;9.64;48.40
27304;BME280;14791;52.392;13.092;2023-02-11T03:22:24;102351.27;;;9.69;48.40
27304;BME280;14791;52.392;13.092;2023-02-11T03:24:51;102355.16;;;9.72;48.36
27304;BME280;14791;52.392;13.092;2023-02-11T03:27:26;102355.16;;;9.72;48.37
27304;BME280;14791;52.392;13.092;2023-02-11T03:30:16;102359.48;;;9.76;48.38
27304;BME280;14791;52.392;13.092;2023-02-11T03:33:01;102356.81;;;9.76;48.39
27304;BME280;14791;52.392;13.092;2023-02-11T03:35:53;102360.46;;;9.73;48.47
27304;BME280;14791;52.392;13.092;2023-02-11T03:38:32;102368.97;;;9.71;48.54
27304;BME280;14791;52.392;13.092;2023-02-11T03:40:52;102369.48;;;9.69;48.61
27304;BME280;14791;52.392;13.092;2023-02-11T03:43:40;102370.38;;;9.70;48.65
27304;BME280;14791;52.392;13.092;2023-02-11T03:46:04;102366.77;;;9.71;48.69
27304;BME280;14791;52.392;13.092;2023-02-11T03:48:36;102358.73;;;9.72;48.71
27304;BME280;14791;52.392;13.092;2023-02-11T03:51:08;102355.09;;;9.75;48.72
27304;BME280;14791;52.392;13.092;2023-02-11T03:53:40;102359.45;;;9.77;48.73
27304;BME280;14791;52.392;13.092;2023-02-11T03:56:13;102354.04;;;9.79;48.74
27304;BME280;14791;52.392;13.092;2023-02-11T03:58:46;102363.81;;;9.80;48.71
27304;BME280;14791;52.392;13.092;2023-02-11T04:01:15;102372.64;;;9.82;48.75
27304;BME280;14791;52.392;13.092;2023-02-11T04:03:45;102366.88;;;9.81;48.81
27304;BME280;14791;52.392;13.092;2023-02-11T04:06:14;102359.30;;;9.82;48.81
27304;BME280;14791;52.392;13.092;2023-02-11T04:08:42;102355.70;;;9.83;48.82
27304;BME280;14791;52.392;13.092;2023-02-11T04:11:11;102356.52;;;9.85;48.84
27304;BME280;14791;52.392;13.092;2023-02-11T04:13:40;102348.41;;;9.88;48.84
27304;BME280;14791;52.392;13.092;2023-02-11T04:16:09;102341.22;;;9.90;48.85
27304;BME280;14791;52.392;13.092;2023-02-11T04:18:38;102349.59;;;9.93;48.85
27304;BME280;14791;52.392;13.092;2023-02-11T04:21:07;102355.36;;;9.94;48.86
27304;BME280;14791;52.392;13.092;2023-02-11T04:23:36;102355.28;;;9.95;48.86
27304;BME280;14791;52.392;13.092;2023-02-11T04:26:05;102349.91;;;9.97;48.88
27304;BME280;14791;52.392;13.092;2023-02-11T04:28:34;102360.08;;;9.99;48.89
27304;BME280;14791;52.392;13.092;2023-02-11T04:31:03;102368.02;;;10.00;48.87
27304;BME280;14791;52.392;13.092;2023-02-11T04:33:32;102363.11;;;10.01;48.85
27304;BME280;14791;52.392;13.092;2023-02-11T04:36:01;102348.42;;;10.01;48.89
27304;BME280;14791;52.392;13.092;2023-02-11T04:38:30;102348.81;;;10.03;48.91
27304;BME280;14791;52.392;13.092;2023-02-11T04:40:58;102348.81;;;10.03;48.91
27304;BME280;14791;52.392;13.092;2023-02-11T04:43:27;102347.08;;;10.01;48.98
27304;BME280;14791;52.392;13.092;2023-02-11T04:45:57;102354.66;;;10.00;49.05
27304;BME280;14791;52.392;13.092;2023-02-11T04:48:26;102350.27;;;9.99;49.09
27304;BME280;14791;52.392;13.092;2023-02-11T04:50:55;102344.92;;;9.99;49.13
27304;BME280;14791;52.392;13.092;2023-02-11T04:53:24;102335.62;;;9.98;49.18
27304;BME280;14791;52.392;13.092;2023-02-11T04:55:53;102330.75;;;9.97;49.23
27304;BME280;14791;52.392;13.092;2023-02-11T04:58:22;102331.69;;;9.96;49.26
27304;BME280;14791;52.392;13.092;2023-02-11T05:00:51;102325.02;;;9.96;49.34
27304;BME280;14791;52.392;13.092;2023-02-11T05:03:20;102323.21;;;9.97;49.38
27304;BME280;14791;52.392;13.092;2023-02-11T05:05:49;102329.89;;;9.97;49.40
27304;BME280;14791;52.392;13.092;2023-02-11T05:08:18;102328.52;;;9.98;49.42
27304;BME280;14791;52.392;13.092;2023-02-11T05:10:47;102327.61;;;9.98;49.49
27304;BME280;14791;52.392;13.092;2023-02-11T05:13:16;102322.23;;;9.99;49.53
27304;BME280;14791;52.392;13.092;2023-02-11T05:15:45;102312.42;;;10.00;49.54
27304;BME280;14791;52.392;13.092;2023-02-11T05:18:14;102312.42;;;10.00;49.56
27304;BME280;14791;52.392;13.092;2023-02-11T05:20:43;102305.70;;;10.01;49.55
27304;BME280;14791;52.392;13.092;2023-02-11T05:23:12;102301.70;;;10.01;49.59
27304;BME280;14791;52.392;13.092;2023-02-11T05:25:41;102299.14;;;9.98;49.63
27304;BME280;14791;52.392;13.092;2023-02-11T05:28:10;102301.38;;;9.97;49.77
27304;BME280;14791;52.392;13.092;2023-02-11T05:30:39;102305.03;;;9.95;49.82
27304;BME280;14791;52.392;13.092;2023-02-11T05:33:08;102301.89;;;9.95;49.84
27304;BME280;14791;52.392;13.092;2023-02-11T05:35:37;102305.50;;;9.94;49.95
27304;BME280;14791;52.392;13.092;2023-02-11T05:38:06;102300.67;;;9.92;50.02
27304;BME280;14791;52.392;13.092;2023-02-11T05:40:35;102296.67;;;9.92;50.11
27304;BME280;14791;52.392;13.092;2023-02-11T05:43:04;102295.73;;;9.93;50.21
27304;BME280;14791;52.392;13.092;2023-02-11T05:45:33;102297.89;;;9.95;50.22
27304;BME280;14791;52.392;13.092;2023-02-11T05:48:02;102287.64;;;9.96;50.30
27304;BME280;14791;52.392;13.092;2023-02-11T05:50:31;102273.39;;;9.96;50.32
27304;BME280;14791;52.392;13.092;2023-02-11T05:53:00;102261.38;;;9.96;50.40
27304;BME280;14791;52.392;13.092;2023-02-11T05:55:29;102266.72;;;9.96;50.46
27304;BME280;14791;52.392;13.092;2023-02-11T05:57:58;102264.05;;;9.96;50.61
27304;BME280;14791;52.392;13.092;2023-02-11T06:00:28;102263.62;;;9.96;50.61
27304;BME280;14791;52.392;13.092;2023-02-11T06:02:56;102263.97;;;9.99;50.68
27304;BME280;14791;52.392;13.092;2023-02-11T06:05:25;102258.16;;;9.99;50.70
27304;BME280;14791;52.392;13.092;2023-02-11T06:07:54;102265.66;;;10.01;50.73
27304;BME280;14791;52.392;13.092;2023-02-11T06:10:23;102269.66;;;10.01;50.79
27304;BME280;14791;52.392;13.092;2023-02-11T06:12:52;102266.91;;;10.03;50.82
27304;BME280;14791;52.392;13.092;2023-02-11T06:15:21;102273.98;;;10.06;50.94
27304;BME280;14791;52.392;13.092;2023-02-11T06:17:50;102278.84;;;10.06;50.92
27304;BME280;14791;52.392;13.092;2023-02-11T06:20:19;102278.34;;;10.08;50.97
27304;BME280;14791;52.392;13.092;2023-02-11T06:22:48;102274.73;;;10.09;51.02
27304;BME280;14791;52.392;13.092;2023-02-11T06:25:17;102278.69;;;10.11;51.05
27304;BME280;14791;52.392;13.092;2023-02-11T06:27:46;102283.09;;;10.12;51.10
27304;BME280;14791;52.392;13.092;2023-02-11T06:30:15;102287.52;;;10.13;51.13
27304;BME280;14791;52.392;13.092;2023-02-11T06:32:44;102275.08;;;10.12;51.15
27304;BME280;14791;52.392;13.092;2023-02-11T06:35:13;102271.50;;;10.13;51.23
27304;BME280;14791;52.392;13.092;2023-02-11T06:37:42;102272.45;;;10.10;51.32
27304;BME280;14791;52.392;13.092;2023-02-11T06:40:11;102273.86;;;10.09;51.41
27304;BME280;14791;52.392;13.092;2023-02-11T06:42:41;102272.10;;;10.08;51.54
27304;BME280;14791;52.392;13.092;2023-02-11T06:45:10;102265.03;;;10.07;51.64
27304;BME280;14791;52.392;13.092;2023-02-11T06:47:40;102270.77;;;10.08;51.68
27304;BME280;14791;52.392;13.092;2023-02-11T06:50:12;102269.42;;;10.08;51.73
27304;BME280;14791;52.392;13.092;2023-02-11T06:52:41;102268.52;;;10.09;51.78
27304;BME280;14791;52.392;13.092;2023-02-11T06:55:10;102267.19;;;10.09;51.83
27304;BME280;14791;52.392;13.092;2023-02-11T06:57:39;102264.91;;;10.10;51.97
27304;BME280;14791;52.392;13.092;2023-02-11T07:00:09;102271.50;;;10.13;51.97
27304;BME280;14791;52.392;13.092;2023-02-11T07:02:38;102269.97;;;10.17;52.02
27304;BME280;14791;52.392;13.092;2023-02-11T07:05:07;102269.81;;;10.22;52.02
27304;BME280;14791;52.392;13.092;2023-02-11T07:07:36;102271.45;;;10.26;52.05
27304;BME280;14791;52.392;13.092;2023-02-11T07:10:06;102278.47;;;10.30;52.01
27304;BME280;14791;52.392;13.092;2023-02-11T07:12:35;102272.11;;;10.34;51.98
27304;BME280;14791;52.392;13.092;2023-02-11T07:15:04;102279.48;;;10.39;51.95
27304;BME280;14791;52.392;13.092;2023-02-11T07:17:34;102283.25;;;10.46;51.94
27304;BME280;14791;52.392;13.092;2023-02-11T07:20:04;102282.73;;;10.48;51.94
27304;BME280;14791;52.392;13.092;2023-02-11T07:22:33;102272.74;;;10.53;51.92
27304;BME280;14791;52.392;13.092;2023-02-11T07:25:02;102260.20;;;10.55;51.94
27304;BME280;14791;52.392;13.092;2023-02-11T07:27:31;102256.54;;;10.57;51.89
27304;BME280;14791;52.392;13.092;2023-02-11T07:30:01;102259.98;;;10.61;51.90
27304;BME280;14791;52.392;13.092;2023-02-11T07:32:30;102250.51;;;10.64;51.91
27304;BME280;14791;52.392;13.092;2023-02-11T07:34:59;102254.39;;;10.67;51.91
27304;BME280;14791;52.392;13.092;2023-02-11T07:37:28;102254.27;;;10.70;51.90
27304;BME280;14791;52.392;13.092;2023-02-11T07:39:57;102245.20;;;10.74;51.90
27304;BME280;14791;52.392;13.092;2023-02-11T07:42:26;102246.42;;;10.77;51.92
27304;BME280;14791;52.392;13.092;2023-02-11T07:44:54;102232.53;;;10.79;51.86
27304;BME280;14791;52.392;13.092;2023-02-11T07:47:24;102231.54;;;10.82;51.88
27304;BME280;14791;52.392;13.092;2023-02-11T07:49:53;102231.02;;;10.84;51.94
27304;BME280;14791;52.392;13.092;2023-02-11T07:52:22;102242.48;;;10.88;51.97
27304;BME280;14791;52.392;13.092;2023-02-11T07:54:50;102248.52;;;10.93;51.96
27304;BME280;14791;52.392;13.092;2023-02-11T07:57:19;102252.82;;;10.97;51.92
27304;BME280;14791;52.392;13.092;2023-02-11T07:59:48;102250.49;;;10.99;51.91
27304;BME280;14791;52.392;13.092;2023-02-11T08:02:17;102250.84;;;11.02;51.96
27304;BME280;14791;52.392;13.092;2023-02-11T08:04:46;102253.37;;;11.05;51.92
27304;BME280;14791;52.392;13.092;2023-02-11T08:07:17;102260.36;;;11.09;51.94
27304;BME280;14791;52.392;13.092;2023-02-11T08:09:46;102244.23;;;11.11;51.96
27304;BME280;14791;52.392;13.092;2023-02-11T08:12:15;102244.57;;;11.13;51.97
27304;BME280;14791;52.392;13.092;2023-02-11T08:14:44;102243.13;;;11.16;51.97
27304;BME280;14791;52.392;13.092;2023-02-11T08:17:13;102235.92;;;11.18;51.98
27304;BME280;14791;52.392;13.092;2023-02-11T08:19:42;102228.29;;;11.19;52.03
27304;BME280;14791;52.392;13.092;2023-02-11T08:22:11;102239.80;;;11.21;52.05
27304;BME280;14791;52.392;13.092;2023-02-11T08:24:40;102251.23;;;11.25;52.04
27304;BME280;14791;52.392;13.092;2023-02-11T08:27:09;102255.19;;;11.26;52.07
27304;BME280;14791;52.392;13.092;2023-02-11T08:29:38;102255.06;;;11.29;52.06
27304;BME280;14791;52.392;13.092;2023-02-11T08:32:08;102271.53;;;11.31;52.13
27304;BME280;14791;52.392;13.092;2023-02-11T08:34:37;102278.14;;;11.32;52.19
27304;BME280;14791;52.392;13.092;2023-02-11T08:37:06;102273.55;;;11.36;52.14
27304;BME280;14791;52.392;13.092;2023-02-11T08:39:35;102273.55;;;11.36;52.14
27304;BME280;14791;52.392;13.092;2023-02-11T08:42:04;102291.41;;;11.35;52.32
27304;BME280;14791;52.392;13.092;2023-02-11T08:44:33;102289.47;;;11.39;52.32
27304;BME280;14791;52.392;13.092;2023-02-11T08:47:02;102285.46;;;11.39;52.35
27304;BME280;14791;52.392;13.092;2023-02-11T08:49:31;102299.66;;;11.41;52.37
27304;BME280;14791;52.392;13.092;2023-02-11T08:52:00;102303.61;;;11.42;52.36
27304;BME280;14791;52.392;13.092;2023-02-11T08:54:31;102309.83;;;11.43;52.38
27304;BME280;14791;52.392;13.092;2023-02-11T08:57:00;102302.27;;;11.42;52.45
27304;BME280;14791;52.392;13.092;2023-02-11T08:59:29;102312.84;;;11.45;52.53
27304;BME280;14791;52.392;13.092;2023-02-11T09:01:59;102281.31;;;11.42;52.66
27304;BME280;14791;52.392;13.092;2023-02-11T09:04:28;102281.31;;;11.42;52.66
27304;BME280;14791;52.392;13.092;2023-02-11T09:06:57;102265.20;;;11.43;52.57
27304;BME280;14791;52.392;13.092;2023-02-11T09:09:26;102254.64;;;11.40;52.70
27304;BME280;14791;52.392;13.092;2023-02-11T09:11:55;102254.64;;;11.40;52.70
27304;BME280;14791;52.392;13.092;2023-02-11T09:14:24;102257.31;;;11.40;52.79
27304;BME280;14791;52.392;13.092;2023-02-11T09:16:53;102255.50;;;11.41;52.89
27304;BME280;14791;52.392;13.092;2023-02-11T09:19:22;102261.72;;;11.41;52.96
27304;BME280;14791;52.392;13.092;2023-02-11T09:21:51;102254.89;;;11.44;52.96
27304;BME280;14791;52.392;13.092;2023-02-11T09:24:20;102260.61;;;11.47;52.96
27304;BME280;14791;52.392;13.092;2023-02-11T09:26:49;102275.72;;;11.48;52.86
27304;BME280;14791;52.392;13.092;2023-02-11T09:29:18;102275.72;;;11.48;52.86
27304;BME280;14791;52.392;13.092;2023-02-11T09:31:47;102284.43;;;11.53;52.96
27304;BME280;14791;52.392;13.092;2023-02-11T09:34:17;102300.83;;;11.56;53.10
27304;BME280;14791;52.392;13.092;2023-02-11T09:36:45;102300.83;;;11.56;53.10
27304;BME280;14791;52.392;13.092;2023-02-11T09:39:17;102311.05;;;11.56;52.97
27304;BME280;14791;52.392;13.092;2023-02-11T09:44:47;102300.25;;;11.59;53.03
27304;BME280;14791;52.392;13.092;2023-02-11T09:47:25;102295.00;;;11.56;53.29
27304;BME280;14791;52.392;13.092;2023-02-11T09:50:00;102295.00;;;11.56;53.29
27304;BME280;14791;52.392;13.092;2023-02-11T09:52:44;102290.94;;;11.58;53.12
27304;BME280;14791;52.392;13.092;2023-02-11T09:55:24;102291.75;;;11.60;52.93
27304;BME280;14791;52.392;13.092;2023-02-11T09:57:56;102290.45;;;11.58;53.17
27304;BME280;14791;52.392;13.092;2023-02-11T10:00:51;102292.80;;;11.56;53.21
27304;BME280;14791;52.392;13.092;2023-02-11T10:03:42;102314.45;;;11.61;53.25
27304;BME280;14791;52.392;13.092;2023-02-11T10:11:51;102341.73;;;11.59;53.39
27304;BME280;14791;52.392;13.092;2023-02-11T10:17:27;102346.00;;;11.63;53.45
27304;BME280;14791;52.392;13.092;2023-02-11T10:20:13;102342.70;;;11.68;53.47
27304;BME280;14791;52.392;13.092;2023-02-11T10:22:46;102350.98;;;11.73;53.39
27304;BME280;14791;52.392;13.092;2023-02-11T10:28:09;102331.72;;;11.75;53.39
27304;BME280;14791;52.392;13.092;2023-02-11T10:30:41;102330.00;;;11.74;53.44
27304;BME280;14791;52.392;13.092;2023-02-11T10:33:19;102331.39;;;11.72;53.45
27304;BME280;14791;52.392;13.092;2023-02-11T10:35:46;102325.69;;;11.69;53.54
27304;BME280;14791;52.392;13.092;2023-02-11T10:38:15;102326.64;;;11.68;53.62
27304;BME280;14791;52.392;13.092;2023-02-11T10:40:44;102319.95;;;11.68;53.66
27304;BME280;14791;52.392;13.092;2023-02-11T10:43:17;102319.48;;;11.69;53.73
27304;BME280;14791;52.392;13.092;2023-02-11T10:45:52;102327.98;;;11.68;53.76
27304;BME280;14791;52.392;13.092;2023-02-11T10:51:24;102330.28;;;11.66;53.74
27304;BME280;14791;52.392;13.092;2023-02-11T10:56:58;102311.01;;;11.58;54.16
27304;BME280;14791;52.392;13.092;2023-02-11T10:59:20;102327.53;;;11.57;54.25
27304;BME280;14791;52.392;13.092;2023-02-11T11:01:57;102327.92;;;11.58;54.30
27304;BME280;14791;52.392;13.092;2023-02-11T11:04:33;102346.14;;;11.60;54.34
27304;BME280;14791;52.392;13.092;2023-02-11T11:07:14;102333.28;;;11.58;54.41
27304;BME280;14791;52.392;13.092;2023-02-11T11:09:55;102331.89;;;11.60;54.41
27304;BME280;14791;52.392;13.092;2023-02-11T11:12:40;102328.41;;;11.58;54.49
27304;BME280;14791;52.392;13.092;2023-02-11T11:15:22;102305.70;;;11.56;54.61
27304;BME280;14791;52.392;13.092;2023-02-11T11:18:28;102302.30;;;11.53;54.73
27304;BME280;14791;52.392;13.092;2023-02-11T11:20:30;102308.13;;;11.52;54.73
27304;BME280;14791;52.392;13.092;2023-02-11T11:23:18;102314.86;;;11.50;54.78
27304;BME280;14791;52.392;13.092;2023-02-11T11:26:11;102316.67;;;11.50;54.83
27304;BME280;14791;52.392;13.092;2023-02-11T11:28:59;102303.82;;;11.48;54.93
27304;BME280;14791;52.392;13.092;2023-02-11T11:31:33;102306.62;;;11.45;55.05
27304;BME280;14791;52.392;13.092;2023-02-11T11:34:24;102305.00;;;11.41;55.12
27304;BME280;14791;52.392;13.092;2023-02-11T11:36:52;102308.63;;;11.40;55.22
27304;BME280;14791;52.392;13.092;2023-02-11T11:39:28;102306.05;;;11.37;55.32
27304;BME280;14791;52.392;13.092;2023-02-11T11:42:19;102307.00;;;11.36;55.36
27304;BME280;14791;52.392;13.092;2023-02-11T11:44:32;102307.00;;;11.36;55.36
27304;BME280;14791;52.392;13.092;2023-02-11T11:50:04;102306.39;;;11.39;55.56
27304;BME280;14791;52.392;13.092;2023-02-11T11:55:10;102302.84;;;11.39;55.61
27304;BME280;14791;52.392;13.092;2023-02-11T11:57:38;102314.03;;;11.38;55.63
27304;BME280;14791;52.392;13.092;2023-02-11T12:00:13;102317.61;;;11.37;55.71
27304;BME280;14791;52.392;13.092;2023-02-11T12:05:36;102302.80;;;11.40;55.86
27304;BME280;14791;52.392;13.092;2023-02-11T12:08:28;102305.48;;;11.40;56.20
27304;BME280;14791;52.392;13.092;2023-02-11T12:11:23;102305.48;;;11.40;56.20
27304;BME280;14791;52.392;13.092;2023-02-11T12:13:55;102308.20;;;11.39;56.11
27304;BME280;14791;52.392;13.092;2023-02-11T12:16:40;102308.20;;;11.39;56.11
27304;BME280;14791;52.392;13.092;2023-02-11T12:19:41;102311.45;;;11.47;55.95
27304;BME280;14791;52.392;13.092;2023-02-11T12:22:19;102311.45;;;11.47;55.95
27304;BME280;14791;52.392;13.092;2023-02-11T12:30:40;102316.97;;;11.54;55.94
27304;BME280;14791;52.392;13.092;2023-02-11T12:36:07;102308.13;;;11.52;56.19
27304;BME280;14791;52.392;13.092;2023-02-11T12:56:05;102292.91;;;11.75;56.53
27304;BME280;14791;52.392;13.092;2023-02-11T12:58:35;102292.91;;;11.75;56.53
27304;BME280;14791;52.392;13.092;2023-02-11T13:01:24;102300.22;;;11.81;56.39
27304;BME280;14791;52.392;13.092;2023-02-11T13:06:36;102295.38;;;11.91;56.26
27304;BME280;14791;52.392;13.092;2023-02-11T13:09:13;102289.22;;;11.99;56.19
27304;BME280;14791;52.392;13.092;2023-02-11T13:11:39;102290.30;;;12.05;56.12
27304;BME280;14791;52.392;13.092;2023-02-11T13:16:46;102299.00;;;12.21;55.94
27304;BME280;14791;52.392;13.092;2023-02-11T13:19:46;102299.66;;;12.26;55.89
27304;BME280;14791;52.392;13.092;2023-02-11T13:24:45;102307.84;;;12.33;55.76
27304;BME280;14791;52.392;13.092;2023-02-11T13:28:11;102305.91;;;12.37;55.74
27304;BME280;14791;52.392;13.092;2023-02-11T13:35:32;102321.64;;;12.44;55.59
27304;BME280;14791;52.392;13.092;2023-02-11T13:38:03;102328.19;;;12.47;55.56
27304;BME280;14791;52.392;13.092;2023-02-11T13:40:37;102329.33;;;12.52;55.54
27304;BME280;14791;52.392;13.092;2023-02-11T13:43:19;102326.98;;;12.54;55.44
27304;BME280;14791;52.392;13.092;2023-02-11T13:45:46;102328.69;;;12.57;55.41
27304;BME280;14791;52.392;13.092;2023-02-11T13:50:50;102329.02;;;12.60;55.33
27304;BME280;14791;52.392;13.092;2023-02-11T13:53:20;102336.05;;;12.62;55.33
27304;BME280;14791;52.392;13.092;2023-02-11T13:56:07;102337.30;;;12.64;55.32
27304;BME280;14791;52.392;13.092;2023-02-11T13:58:36;102335.03;;;12.65;55.34
27304;BME280;14791;52.392;13.092;2023-02-11T14:01:07;102340.39;;;12.65;55.33
27304;BME280;14791;52.392;13.092;2023-02-11T14:03:37;102355.53;;;12.66;55.33
27304;BME280;14791;52.392;13.092;2023-02-11T14:06:27;102346.56;;;12.67;55.30
27304;BME280;14791;52.392;13.092;2023-02-11T14:11:52;102355.95;;;12.67;55.41
27304;BME280;14791;52.392;13.092;2023-02-11T14:14:27;102361.70;;;12.68;55.44
27304;BME280;14791;52.392;13.092;2023-02-11T14:19:46;102355.75;;;12.71;55.37
27304;BME280;14791;52.392;13.092;2023-02-11T14:22:17;102345.55;;;12.69;55.40
27304;BME280;14791;52.392;13.092;2023-02-11T14:27:41;102358.81;;;12.72;55.44
27304;BME280;14791;52.392;13.092;2023-02-11T14:30:33;102351.63;;;12.73;55.42
27304;BME280;14791;52.392;13.092;2023-02-11T14:33:12;102353.06;;;12.71;55.46
27304;BME280;14791;52.392;13.092;2023-02-11T14:43:46;102361.29;;;12.77;55.61
27304;BME280;14791;52.392;13.092;2023-02-11T14:46:13;102372.08;;;12.75;55.60
27304;BME280;14791;52.392;13.092;2023-02-11T14:48:45;102367.52;;;12.77;55.57
27304;BME280;14791;52.392;13.092;2023-02-11T14:51:34;102366.92;;;12.81;55.51
27304;BME280;14791;52.392;13.092;2023-02-11T14:54:24;102356.64;;;12.81;55.51
27304;BME280;14791;52.392;13.092;2023-02-11T14:56:31;102365.16;;;12.80;55.55
27304;BME280;14791;52.392;13.092;2023-02-11T14:59:01;102366.51;;;12.80;55.53
27304;BME280;14791;52.392;13.092;2023-02-11T15:01:33;102377.65;;;12.81;55.51
27304;BME280;14791;52.392;13.092;2023-02-11T15:04:04;102373.48;;;12.84;55.47